CSC715 ZGHA-ZHHH
Flight info
| Callsign | CSC715 |
|---|---|
| Flight time | 0h 40m |
| Altitude | 26600 |
| Route | GUD9X GUDRO W56 UPMAT UPMAT2T |
| Aircraft | A320/M-SDE3FGHIRWY/LB1 |
Departure
| Time | 2026-04-24 08:30 |
|---|---|
| Airport | Changsha Huanghua International Airport (ZGHA) |
Arrival
| Time | 2026-04-24 09:11 |
|---|---|
| Airport | Wuhan Tianhe International Airport (ZHHH) |
| Time | Latitude | Longitude | Altitude | Speed | Heading |
|---|---|---|---|---|---|
| 2026-04-24 08:15 | 28.18259 | 113.21706 | 262 ft | 0 kts | 266° |
| 2026-04-24 08:24 | 28.18260 | 113.21721 | 217 ft | 2 kts | 266° |
| 2026-04-24 08:24 | 28.18261 | 113.21739 | 214 ft | 2 kts | 265° |
| 2026-04-24 08:24 | 28.18262 | 113.21757 | 214 ft | 2 kts | 267° |
| 2026-04-24 08:25 | 28.18263 | 113.21776 | 214 ft | 2 kts | 267° |
| 2026-04-24 08:25 | 28.18264 | 113.21794 | 214 ft | 2 kts | 260° |
| 2026-04-24 08:25 | 28.18270 | 113.21811 | 214 ft | 2 kts | 222° |
| 2026-04-24 08:25 | 28.18283 | 113.21821 | 218 ft | 2 kts | 199° |
| 2026-04-24 08:26 | 28.18299 | 113.21826 | 215 ft | 2 kts | 184° |
| 2026-04-24 08:26 | 28.18310 | 113.21826 | 216 ft | 0 kts | 168° |
| 2026-04-24 08:27 | 28.18287 | 113.21828 | 214 ft | 7 kts | 175° |
| 2026-04-24 08:28 | 28.18217 | 113.21833 | 219 ft | 13 kts | 177° |
| 2026-04-24 08:28 | 28.18103 | 113.21839 | 214 ft | 19 kts | 176° |
| 2026-04-24 08:28 | 28.17963 | 113.21848 | 214 ft | 21 kts | 176° |
| 2026-04-24 08:28 | 28.17830 | 113.21857 | 217 ft | 16 kts | 177° |
| 2026-04-24 08:29 | 28.17754 | 113.21885 | 215 ft | 10 kts | 126° |
| 2026-04-24 08:29 | 28.17745 | 113.21967 | 216 ft | 11 kts | 85° |
| 2026-04-24 08:29 | 28.17786 | 113.22044 | 215 ft | 12 kts | 14° |
| 2026-04-24 08:29 | 28.17881 | 113.22039 | 220 ft | 16 kts | 357° |
| 2026-04-24 08:30 | 28.18158 | 113.22022 | 216 ft | 75 kts | 357° |
| 2026-04-24 08:30 | 28.18897 | 113.21979 | 218 ft | 135 kts | 358° |
| 2026-04-24 08:30 | 28.19903 | 113.21932 | 653 ft | 146 kts | 358° |
| 2026-04-24 08:30 | 28.20938 | 113.21887 | 1302 ft | 151 kts | 356° |
| 2026-04-24 08:31 | 28.21983 | 113.21823 | 1967 ft | 151 kts | 356° |
| 2026-04-24 08:31 | 28.23083 | 113.21749 | 2439 ft | 166 kts | 356° |
| 2026-04-24 08:31 | 28.24298 | 113.21666 | 2866 ft | 183 kts | 356° |
| 2026-04-24 08:31 | 28.25637 | 113.21576 | 3301 ft | 203 kts | 357° |
| 2026-04-24 08:32 | 28.27105 | 113.21512 | 3831 ft | 218 kts | 5° |
| 2026-04-24 08:32 | 28.28518 | 113.22097 | 4619 ft | 220 kts | 39° |
| 2026-04-24 08:32 | 28.29493 | 113.23397 | 5406 ft | 222 kts | 56° |
| 2026-04-24 08:32 | 28.30359 | 113.24873 | 6198 ft | 227 kts | 55° |
| 2026-04-24 08:33 | 28.31241 | 113.26372 | 7014 ft | 230 kts | 54° |
| 2026-04-24 08:33 | 28.32136 | 113.27889 | 7819 ft | 233 kts | 54° |
| 2026-04-24 08:33 | 28.33050 | 113.29432 | 8620 ft | 237 kts | 53° |
| 2026-04-24 08:33 | 28.33988 | 113.31011 | 9303 ft | 248 kts | 53° |
| 2026-04-24 08:34 | 28.34987 | 113.32696 | 9839 ft | 266 kts | 53° |
| 2026-04-24 08:34 | 28.36050 | 113.34494 | 10338 ft | 283 kts | 53° |
| 2026-04-24 08:34 | 28.37182 | 113.36409 | 10791 ft | 301 kts | 54° |
| 2026-04-24 08:34 | 28.38384 | 113.38446 | 11235 ft | 318 kts | 54° |
| 2026-04-24 08:35 | 28.39648 | 113.40590 | 11646 ft | 335 kts | 54° |
| 2026-04-24 08:35 | 28.40984 | 113.42840 | 12052 ft | 351 kts | 52° |
| 2026-04-24 08:35 | 28.42617 | 113.44892 | 12625 ft | 357 kts | 39° |
| 2026-04-24 08:35 | 28.44649 | 113.46535 | 13313 ft | 360 kts | 27° |
| 2026-04-24 08:36 | 28.46966 | 113.47648 | 13958 ft | 364 kts | 14° |
| 2026-04-24 08:36 | 28.49471 | 113.48149 | 14564 ft | 365 kts | 0° |
| 2026-04-24 08:36 | 28.52026 | 113.48311 | 15182 ft | 369 kts | 360° |
| 2026-04-24 08:36 | 28.54607 | 113.48485 | 15832 ft | 372 kts | 360° |
| 2026-04-24 08:37 | 28.57203 | 113.48668 | 16481 ft | 375 kts | 359° |
| 2026-04-24 08:37 | 28.59789 | 113.48852 | 17120 ft | 378 kts | 359° |
| 2026-04-24 08:37 | 28.62429 | 113.49044 | 17784 ft | 382 kts | 359° |
| 2026-04-24 08:37 | 28.65091 | 113.49237 | 18441 ft | 385 kts | 358° |
| 2026-04-24 08:38 | 28.67774 | 113.49428 | 19022 ft | 388 kts | 358° |
| 2026-04-24 08:38 | 28.70480 | 113.49623 | 19617 ft | 391 kts | 358° |
| 2026-04-24 08:38 | 28.73208 | 113.49820 | 20221 ft | 395 kts | 358° |
| 2026-04-24 08:38 | 28.75963 | 113.50019 | 20818 ft | 398 kts | 358° |
| 2026-04-24 08:39 | 28.78740 | 113.50222 | 21389 ft | 402 kts | 358° |
| 2026-04-24 08:39 | 28.81539 | 113.50424 | 21946 ft | 405 kts | 358° |
| 2026-04-24 08:39 | 28.84363 | 113.50626 | 22495 ft | 408 kts | 358° |
| 2026-04-24 08:39 | 28.87212 | 113.50830 | 23019 ft | 412 kts | 358° |
| 2026-04-24 08:40 | 28.90096 | 113.51037 | 23531 ft | 415 kts | 357° |
| 2026-04-24 08:40 | 28.92991 | 113.51244 | 23976 ft | 419 kts | 357° |
| 2026-04-24 08:40 | 28.95916 | 113.51454 | 24391 ft | 422 kts | 357° |
| 2026-04-24 08:40 | 28.98819 | 113.51662 | 24809 ft | 425 kts | 357° |
| 2026-04-24 08:41 | 29.01783 | 113.51874 | 25215 ft | 428 kts | 356° |
| 2026-04-24 08:41 | 29.04770 | 113.52088 | 25614 ft | 430 kts | 356° |
| 2026-04-24 08:41 | 29.07771 | 113.52308 | 25996 ft | 433 kts | 356° |
| 2026-04-24 08:41 | 29.10792 | 113.52529 | 26380 ft | 437 kts | 356° |
| 2026-04-24 08:42 | 29.13837 | 113.52748 | 26616 ft | 439 kts | 356° |
| 2026-04-24 08:42 | 29.16881 | 113.52972 | 26669 ft | 436 kts | 356° |
| 2026-04-24 08:42 | 29.19908 | 113.53197 | 26670 ft | 436 kts | 356° |
| 2026-04-24 08:42 | 29.22932 | 113.53418 | 26668 ft | 436 kts | 356° |
| 2026-04-24 08:43 | 29.25953 | 113.53636 | 26669 ft | 435 kts | 356° |
| 2026-04-24 08:43 | 29.28982 | 113.53853 | 26670 ft | 435 kts | 356° |
| 2026-04-24 08:43 | 29.31968 | 113.54086 | 26671 ft | 436 kts | 356° |
| 2026-04-24 08:43 | 29.35035 | 113.54351 | 26671 ft | 436 kts | 357° |
| 2026-04-24 08:44 | 29.38058 | 113.54622 | 26670 ft | 436 kts | 357° |
| 2026-04-24 08:44 | 29.41046 | 113.54890 | 26668 ft | 436 kts | 357° |
| 2026-04-24 08:44 | 29.44066 | 113.55159 | 26673 ft | 436 kts | 357° |
| 2026-04-24 08:44 | 29.47091 | 113.55427 | 26676 ft | 436 kts | 357° |
| 2026-04-24 08:45 | 29.50120 | 113.55692 | 26676 ft | 436 kts | 357° |
| 2026-04-24 08:45 | 29.53144 | 113.55955 | 26677 ft | 436 kts | 357° |
| 2026-04-24 08:45 | 29.56171 | 113.56218 | 26678 ft | 436 kts | 357° |
| 2026-04-24 08:45 | 29.59203 | 113.56482 | 26678 ft | 437 kts | 357° |
| 2026-04-24 08:46 | 29.62231 | 113.56746 | 26679 ft | 437 kts | 357° |
| 2026-04-24 08:46 | 29.65260 | 113.57010 | 26678 ft | 437 kts | 357° |
| 2026-04-24 08:46 | 29.68295 | 113.57271 | 26682 ft | 437 kts | 358° |
| 2026-04-24 08:46 | 29.70311 | 113.57445 | 26681 ft | 437 kts | 357° |
| 2026-04-24 08:47 | 29.73341 | 113.57705 | 26680 ft | 437 kts | 358° |
| 2026-04-24 08:47 | 29.77358 | 113.58055 | 26684 ft | 437 kts | 358° |
| 2026-04-24 08:47 | 29.79404 | 113.58235 | 26687 ft | 437 kts | 358° |
| 2026-04-24 08:47 | 29.83415 | 113.58588 | 26683 ft | 436 kts | 358° |
| 2026-04-24 08:48 | 29.85461 | 113.58766 | 26680 ft | 436 kts | 357° |
| 2026-04-24 08:48 | 29.88491 | 113.59029 | 26680 ft | 436 kts | 358° |
| 2026-04-24 08:48 | 29.91516 | 113.59295 | 26675 ft | 436 kts | 358° |
| 2026-04-24 08:48 | 29.95512 | 113.60166 | 26678 ft | 447 kts | 11° |
| 2026-04-24 08:49 | 29.97456 | 113.60998 | 26673 ft | 453 kts | 17° |
| 2026-04-24 08:49 | 30.00349 | 113.62451 | 26677 ft | 453 kts | 17° |
| 2026-04-24 08:49 | 30.03242 | 113.63900 | 26677 ft | 453 kts | 17° |
| 2026-04-24 08:49 | 30.06110 | 113.65428 | 26680 ft | 457 kts | 23° |
| 2026-04-24 08:50 | 30.08791 | 113.67435 | 26674 ft | 464 kts | 33° |
| 2026-04-24 08:50 | 30.11252 | 113.69863 | 26676 ft | 466 kts | 37° |
| 2026-04-24 08:50 | 30.13695 | 113.72342 | 26674 ft | 466 kts | 37° |
| 2026-04-24 08:50 | 30.16135 | 113.74815 | 26674 ft | 466 kts | 37° |
| 2026-04-24 08:51 | 30.18545 | 113.77250 | 26675 ft | 466 kts | 37° |
| 2026-04-24 08:51 | 30.20989 | 113.79716 | 26675 ft | 466 kts | 37° |
| 2026-04-24 08:51 | 30.23438 | 113.82184 | 26676 ft | 466 kts | 36° |
| 2026-04-24 08:51 | 30.25882 | 113.84651 | 26676 ft | 466 kts | 37° |
| 2026-04-24 08:52 | 30.28319 | 113.87113 | 26585 ft | 461 kts | 37° |
| 2026-04-24 08:52 | 30.30712 | 113.89534 | 26339 ft | 455 kts | 37° |
| 2026-04-24 08:52 | 30.33076 | 113.91930 | 25888 ft | 450 kts | 37° |
| 2026-04-24 08:52 | 30.35423 | 113.94315 | 25286 ft | 448 kts | 37° |
| 2026-04-24 08:53 | 30.37759 | 113.96691 | 24710 ft | 445 kts | 37° |
| 2026-04-24 08:53 | 30.40074 | 113.99043 | 24153 ft | 442 kts | 37° |
| 2026-04-24 08:53 | 30.42376 | 114.01382 | 23597 ft | 438 kts | 37° |
| 2026-04-24 08:53 | 30.44661 | 114.03703 | 23016 ft | 433 kts | 37° |
| 2026-04-24 08:54 | 30.46910 | 114.05988 | 22504 ft | 428 kts | 37° |
| 2026-04-24 08:54 | 30.49133 | 114.08251 | 21980 ft | 423 kts | 37° |
| 2026-04-24 08:54 | 30.51336 | 114.10495 | 21464 ft | 419 kts | 37° |
| 2026-04-24 08:54 | 30.53498 | 114.12693 | 20939 ft | 417 kts | 38° |
| 2026-04-24 08:55 | 30.55670 | 114.14905 | 20414 ft | 414 kts | 38° |
| 2026-04-24 08:55 | 30.57828 | 114.17108 | 19858 ft | 412 kts | 38° |
| 2026-04-24 08:55 | 30.59974 | 114.19299 | 19319 ft | 410 kts | 38° |
| 2026-04-24 08:55 | 30.62116 | 114.21486 | 18760 ft | 408 kts | 38° |
| 2026-04-24 08:56 | 30.64237 | 114.23654 | 18307 ft | 403 kts | 38° |
| 2026-04-24 08:56 | 30.66342 | 114.25807 | 17668 ft | 401 kts | 38° |
| 2026-04-24 08:56 | 30.68409 | 114.27926 | 17082 ft | 391 kts | 38° |
| 2026-04-24 08:56 | 30.70402 | 114.29975 | 16482 ft | 373 kts | 38° |
| 2026-04-24 08:57 | 30.72317 | 114.31943 | 15985 ft | 366 kts | 38° |
| 2026-04-24 08:57 | 30.74197 | 114.33870 | 15445 ft | 363 kts | 38° |
| 2026-04-24 08:57 | 30.76088 | 114.35803 | 14925 ft | 361 kts | 39° |
| 2026-04-24 08:57 | 30.77965 | 114.37719 | 14404 ft | 358 kts | 39° |
| 2026-04-24 08:58 | 30.79832 | 114.39629 | 13882 ft | 356 kts | 39° |
| 2026-04-24 08:58 | 30.81683 | 114.41532 | 13317 ft | 353 kts | 39° |
| 2026-04-24 08:58 | 30.83511 | 114.43414 | 12797 ft | 349 kts | 39° |
| 2026-04-24 08:58 | 30.85327 | 114.45281 | 12275 ft | 346 kts | 39° |
| 2026-04-24 08:59 | 30.87122 | 114.47127 | 11766 ft | 343 kts | 39° |
| 2026-04-24 08:59 | 30.88890 | 114.48947 | 11467 ft | 332 kts | 39° |
| 2026-04-24 08:59 | 30.90552 | 114.50665 | 11339 ft | 307 kts | 39° |
| 2026-04-24 08:59 | 30.92090 | 114.52257 | 11182 ft | 285 kts | 39° |
| 2026-04-24 09:00 | 30.93520 | 114.53736 | 11040 ft | 266 kts | 39° |
| 2026-04-24 09:00 | 30.94885 | 114.55142 | 10664 ft | 260 kts | 39° |
| 2026-04-24 09:00 | 30.96235 | 114.56531 | 10428 ft | 258 kts | 39° |
| 2026-04-24 09:00 | 30.97582 | 114.57918 | 10097 ft | 260 kts | 40° |
| 2026-04-24 09:01 | 30.98949 | 114.59325 | 9709 ft | 262 kts | 38° |
| 2026-04-24 09:01 | 31.00488 | 114.60356 | 9367 ft | 256 kts | 12° |
| 2026-04-24 09:01 | 31.02231 | 114.60326 | 8799 ft | 251 kts | 340° |
| 2026-04-24 09:01 | 31.03687 | 114.59284 | 8326 ft | 247 kts | 313° |
| 2026-04-24 09:02 | 31.04845 | 114.57774 | 7962 ft | 247 kts | 311° |
| 2026-04-24 09:02 | 31.05883 | 114.56305 | 7809 ft | 231 kts | 300° |
| 2026-04-24 09:02 | 31.06320 | 114.54549 | 7596 ft | 226 kts | 270° |
| 2026-04-24 09:02 | 31.05932 | 114.52826 | 7431 ft | 219 kts | 239° |
| 2026-04-24 09:03 | 31.04923 | 114.51551 | 7292 ft | 210 kts | 223° |
| 2026-04-24 09:03 | 31.03843 | 114.50448 | 7028 ft | 205 kts | 223° |
| 2026-04-24 09:03 | 31.02764 | 114.49335 | 6509 ft | 210 kts | 223° |
| 2026-04-24 09:03 | 31.01665 | 114.48200 | 6086 ft | 208 kts | 223° |
| 2026-04-24 09:04 | 31.00607 | 114.47109 | 5920 ft | 202 kts | 223° |
| 2026-04-24 09:04 | 30.99551 | 114.46020 | 5619 ft | 203 kts | 223° |
| 2026-04-24 09:04 | 30.98494 | 114.44929 | 5327 ft | 202 kts | 223° |
| 2026-04-24 09:04 | 30.97452 | 114.43856 | 5096 ft | 199 kts | 223° |
| 2026-04-24 09:05 | 30.96413 | 114.42785 | 4857 ft | 199 kts | 222° |
| 2026-04-24 09:05 | 30.95379 | 114.41720 | 4604 ft | 197 kts | 222° |
| 2026-04-24 09:05 | 30.94358 | 114.40669 | 4340 ft | 195 kts | 222° |
| 2026-04-24 09:05 | 30.93347 | 114.39628 | 4086 ft | 192 kts | 221° |
| 2026-04-24 09:06 | 30.92347 | 114.38600 | 3830 ft | 190 kts | 221° |
| 2026-04-24 09:06 | 30.91373 | 114.37598 | 3577 ft | 188 kts | 221° |
| 2026-04-24 09:06 | 30.90399 | 114.36597 | 3344 ft | 186 kts | 220° |
| 2026-04-24 09:06 | 30.89432 | 114.35602 | 3095 ft | 185 kts | 220° |
| 2026-04-24 09:07 | 30.88475 | 114.34619 | 2851 ft | 181 kts | 220° |
| 2026-04-24 09:07 | 30.87551 | 114.33669 | 2614 ft | 173 kts | 220° |
| 2026-04-24 09:07 | 30.85804 | 114.31876 | 2163 ft | 161 kts | 220° |
| 2026-04-24 09:08 | 30.85015 | 114.31064 | 1988 ft | 141 kts | 220° |
| 2026-04-24 09:08 | 30.84305 | 114.30335 | 1798 ft | 134 kts | 220° |
| 2026-04-24 09:08 | 30.83611 | 114.29624 | 1618 ft | 132 kts | 220° |
| 2026-04-24 09:08 | 30.82922 | 114.28917 | 1439 ft | 133 kts | 220° |
| 2026-04-24 09:09 | 30.82230 | 114.28208 | 1260 ft | 132 kts | 221° |
| 2026-04-24 09:09 | 30.81541 | 114.27501 | 1081 ft | 133 kts | 220° |
| 2026-04-24 09:09 | 30.80856 | 114.26799 | 904 ft | 133 kts | 220° |
| 2026-04-24 09:09 | 30.80160 | 114.26086 | 723 ft | 134 kts | 221° |
| 2026-04-24 09:10 | 30.79461 | 114.25369 | 530 ft | 133 kts | 221° |
| 2026-04-24 09:10 | 30.78768 | 114.24660 | 358 ft | 132 kts | 221° |
| 2026-04-24 09:10 | 30.78082 | 114.23956 | 184 ft | 131 kts | 221° |
| 2026-04-24 09:10 | 30.77424 | 114.23282 | 107 ft | 114 kts | 221° |
| 2026-04-24 09:11 | 30.76996 | 114.22840 | 105 ft | 59 kts | 222° |
| 2026-04-24 09:11 | 30.76816 | 114.22611 | 105 ft | 23 kts | 250° |
| 2026-04-24 09:11 | 30.76756 | 114.22436 | 107 ft | 24 kts | 248° |
| 2026-04-24 09:11 | 30.76675 | 114.22270 | 108 ft | 23 kts | 227° |
| 2026-04-24 09:12 | 30.76552 | 114.22135 | 108 ft | 26 kts | 222° |
| 2026-04-24 09:12 | 30.76417 | 114.21995 | 108 ft | 25 kts | 221° |
| 2026-04-24 09:12 | 30.76276 | 114.21851 | 107 ft | 28 kts | 222° |
| 2026-04-24 09:12 | 30.76140 | 114.21713 | 107 ft | 14 kts | 221° |
| 2026-04-24 09:13 | 30.76089 | 114.21634 | 107 ft | 13 kts | 270° |
| 2026-04-24 09:13 | 30.76142 | 114.21543 | 107 ft | 15 kts | 311° |
| 2026-04-24 09:13 | 30.76220 | 114.21441 | 108 ft | 18 kts | 311° |
| 2026-04-24 09:13 | 30.76307 | 114.21329 | 107 ft | 14 kts | 311° |
| 2026-04-24 09:14 | 30.76384 | 114.21312 | 108 ft | 13 kts | 34° |
| 2026-04-24 09:14 | 30.76460 | 114.21388 | 107 ft | 16 kts | 42° |
| 2026-04-24 09:14 | 30.76552 | 114.21482 | 107 ft | 19 kts | 41° |
| 2026-04-24 09:14 | 30.76658 | 114.21591 | 107 ft | 22 kts | 41° |
| 2026-04-24 09:15 | 30.76730 | 114.21664 | 108 ft | 12 kts | 41° |
| 2026-04-24 09:15 | 30.76801 | 114.21660 | 108 ft | 12 kts | 321° |
| 2026-04-24 09:15 | 30.76850 | 114.21652 | 108 ft | 6 kts | 11° |
| 2026-04-24 09:15 | 30.76896 | 114.21662 | 108 ft | 7 kts | 11° |
| 2026-04-24 09:16 | 30.76928 | 114.21670 | 108 ft | 0 kts | 11° |
| 2026-04-24 09:16 | 30.76925 | 114.21669 | 108 ft | 3 kts | 11° |
| 2026-04-24 09:16 | 30.76926 | 114.21669 | 108 ft | 0 kts | 11° |